sensor_id;sensor_type;location;lat;lon;timestamp;pressure;altitude;pressure_sealevel;temperature;humidity
7297;BME280;40758;54.038;11.684;2023-06-26T00:00:02;101328.78;;;18.10;74.35
7297;BME280;40758;54.038;11.684;2023-06-26T00:02:31;101336.19;;;18.09;74.40
7297;BME280;40758;54.038;11.684;2023-06-26T00:05:00;101321.03;;;18.06;74.31
7297;BME280;40758;54.038;11.684;2023-06-26T00:07:30;101325.72;;;18.06;74.67
7297;BME280;40758;54.038;11.684;2023-06-26T00:09:57;101322.13;;;18.05;74.72
7297;BME280;40758;54.038;11.684;2023-06-26T00:12:26;101317.78;;;18.10;74.83
7297;BME280;40758;54.038;11.684;2023-06-26T00:14:53;101317.53;;;18.11;75.24
7297;BME280;40758;54.038;11.684;2023-06-26T00:17:20;101313.41;;;18.14;75.23
7297;BME280;40758;54.038;11.684;2023-06-26T00:19:47;101310.38;;;18.10;75.14
7297;BME280;40758;54.038;11.684;2023-06-26T00:22:14;101313.69;;;18.12;75.47
7297;BME280;40758;54.038;11.684;2023-06-26T00:24:41;101309.22;;;18.06;75.51
7297;BME280;40758;54.038;11.684;2023-06-26T00:27:08;101310.03;;;18.06;75.27
7297;BME280;40758;54.038;11.684;2023-06-26T00:29:34;101310.25;;;18.00;75.61
7297;BME280;40758;54.038;11.684;2023-06-26T00:32:01;101294.47;;;17.90;75.64
7297;BME280;40758;54.038;11.684;2023-06-26T00:34:28;101288.75;;;17.92;75.91
7297;BME280;40758;54.038;11.684;2023-06-26T00:36:55;101302.84;;;17.78;75.66
7297;BME280;40758;54.038;11.684;2023-06-26T00:39:22;101290.50;;;17.59;75.43
7297;BME280;40758;54.038;11.684;2023-06-26T00:41:52;101290.28;;;17.44;75.50
7297;BME280;40758;54.038;11.684;2023-06-26T00:44:22;101292.75;;;17.23;75.58
7297;BME280;40758;54.038;11.684;2023-06-26T00:46:49;101291.19;;;17.11;75.89
7297;BME280;40758;54.038;11.684;2023-06-26T00:49:15;101292.44;;;17.03;76.52
7297;BME280;40758;54.038;11.684;2023-06-26T00:51:43;101274.97;;;16.92;76.94
7297;BME280;40758;54.038;11.684;2023-06-26T00:54:10;101282.06;;;16.88;77.01
7297;BME280;40758;54.038;11.684;2023-06-26T00:56:37;101279.22;;;16.83;77.20
7297;BME280;40758;54.038;11.684;2023-06-26T00:59:04;101279.88;;;16.73;77.18
7297;BME280;40758;54.038;11.684;2023-06-26T01:01:30;101280.41;;;16.70;77.40
7297;BME280;40758;54.038;11.684;2023-06-26T01:03:57;101280.03;;;16.67;77.55
7297;BME280;40758;54.038;11.684;2023-06-26T01:06:25;101266.75;;;16.59;77.95
7297;BME280;40758;54.038;11.684;2023-06-26T01:08:57;101271.53;;;16.68;77.91
7297;BME280;40758;54.038;11.684;2023-06-26T01:11:25;101269.88;;;16.67;78.18
7297;BME280;40758;54.038;11.684;2023-06-26T01:13:52;101250.44;;;16.52;78.19
7297;BME280;40758;54.038;11.684;2023-06-26T01:16:21;101269.72;;;16.57;78.24
7297;BME280;40758;54.038;11.684;2023-06-26T01:18:48;101264.75;;;16.54;78.23
7297;BME280;40758;54.038;11.684;2023-06-26T01:21:16;101260.56;;;16.52;78.39
7297;BME280;40758;54.038;11.684;2023-06-26T01:24:12;101246.47;;;16.43;78.21
7297;BME280;40758;54.038;11.684;2023-06-26T01:26:50;101261.91;;;16.49;78.44
7297;BME280;40758;54.038;11.684;2023-06-26T01:29:18;101256.78;;;16.53;78.92
7297;BME280;40758;54.038;11.684;2023-06-26T01:31:46;101262.72;;;16.49;79.15
7297;BME280;40758;54.038;11.684;2023-06-26T01:34:17;101253.13;;;16.47;78.97
7297;BME280;40758;54.038;11.684;2023-06-26T01:36:45;101248.03;;;16.39;79.05
7297;BME280;40758;54.038;11.684;2023-06-26T01:39:15;101252.75;;;16.43;79.61
7297;BME280;40758;54.038;11.684;2023-06-26T01:41:42;101251.94;;;16.43;79.57
7297;BME280;40758;54.038;11.684;2023-06-26T01:44:26;101245.94;;;16.46;79.84
7297;BME280;40758;54.038;11.684;2023-06-26T01:47:04;101246.88;;;16.52;80.17
7297;BME280;40758;54.038;11.684;2023-06-26T01:50:09;101242.91;;;16.59;80.10
7297;BME280;40758;54.038;11.684;2023-06-26T01:52:42;101237.50;;;16.64;80.44
7297;BME280;40758;54.038;11.684;2023-06-26T01:55:17;101246.72;;;16.75;80.64
7297;BME280;40758;54.038;11.684;2023-06-26T01:57:47;101241.50;;;16.73;80.41
7297;BME280;40758;54.038;11.684;2023-06-26T02:00:19;101243.91;;;16.70;80.22
7297;BME280;40758;54.038;11.684;2023-06-26T02:02:46;101242.97;;;16.64;80.18
7297;BME280;40758;54.038;11.684;2023-06-26T02:05:13;101228.59;;;16.57;80.14
7297;BME280;40758;54.038;11.684;2023-06-26T02:07:41;101236.50;;;16.54;80.32
7297;BME280;40758;54.038;11.684;2023-06-26T02:10:08;101227.94;;;16.50;80.40
7297;BME280;40758;54.038;11.684;2023-06-26T02:12:36;101227.44;;;16.53;80.83
7297;BME280;40758;54.038;11.684;2023-06-26T02:15:03;101224.84;;;16.46;80.91
7297;BME280;40758;54.038;11.684;2023-06-26T02:17:30;101221.53;;;16.44;81.08
7297;BME280;40758;54.038;11.684;2023-06-26T02:19:57;101218.22;;;16.42;81.21
7297;BME280;40758;54.038;11.684;2023-06-26T02:22:24;101222.78;;;16.37;80.96
7297;BME280;40758;54.038;11.684;2023-06-26T02:24:51;101222.69;;;16.32;81.28
7297;BME280;40758;54.038;11.684;2023-06-26T02:27:18;101216.38;;;16.31;81.47
7297;BME280;40758;54.038;11.684;2023-06-26T02:29:44;101209.47;;;16.29;81.61
7297;BME280;40758;54.038;11.684;2023-06-26T02:32:11;101210.25;;;16.24;81.68
7297;BME280;40758;54.038;11.684;2023-06-26T02:34:38;101215.03;;;16.17;81.67
7297;BME280;40758;54.038;11.684;2023-06-26T02:37:04;101195.34;;;16.03;81.63
7297;BME280;40758;54.038;11.684;2023-06-26T02:39:34;101205.13;;;15.99;81.60
7297;BME280;40758;54.038;11.684;2023-06-26T02:42:01;101200.16;;;15.96;81.92
7297;BME280;40758;54.038;11.684;2023-06-26T02:44:28;101197.66;;;15.94;82.14
7297;BME280;40758;54.038;11.684;2023-06-26T02:46:55;101206.84;;;15.88;81.99
7297;BME280;40758;54.038;11.684;2023-06-26T02:49:22;101195.06;;;15.88;82.50
7297;BME280;40758;54.038;11.684;2023-06-26T02:51:49;101202.59;;;15.81;82.30
7297;BME280;40758;54.038;11.684;2023-06-26T02:54:16;101207.97;;;15.76;82.18
7297;BME280;40758;54.038;11.684;2023-06-26T02:56:43;101195.88;;;15.72;82.62
7297;BME280;40758;54.038;11.684;2023-06-26T02:59:14;101199.81;;;15.64;82.43
7297;BME280;40758;54.038;11.684;2023-06-26T03:01:41;101197.75;;;15.59;82.85
7297;BME280;40758;54.038;11.684;2023-06-26T03:04:07;101191.69;;;15.57;82.93
7297;BME280;40758;54.038;11.684;2023-06-26T03:06:34;101204.91;;;15.60;83.12
7297;BME280;40758;54.038;11.684;2023-06-26T03:09:01;101195.50;;;15.68;83.42
7297;BME280;40758;54.038;11.684;2023-06-26T03:11:29;101196.44;;;15.62;83.33
7297;BME280;40758;54.038;11.684;2023-06-26T03:13:57;101194.31;;;15.64;83.33
7297;BME280;40758;54.038;11.684;2023-06-26T03:16:24;101198.34;;;15.73;83.81
7297;BME280;40758;54.038;11.684;2023-06-26T03:18:51;101187.97;;;15.75;83.97
7297;BME280;40758;54.038;11.684;2023-06-26T03:21:17;101187.66;;;15.72;83.65
7297;BME280;40758;54.038;11.684;2023-06-26T03:23:44;101190.72;;;15.75;83.89
7297;BME280;40758;54.038;11.684;2023-06-26T03:26:11;101181.09;;;15.73;84.12
7297;BME280;40758;54.038;11.684;2023-06-26T03:28:37;101186.84;;;15.88;84.22
7297;BME280;40758;54.038;11.684;2023-06-26T03:31:04;101177.00;;;16.04;84.86
7297;BME280;40758;54.038;11.684;2023-06-26T03:33:31;101185.16;;;16.15;84.80
7297;BME280;40758;54.038;11.684;2023-06-26T03:35:58;101177.50;;;16.17;84.62
7297;BME280;40758;54.038;11.684;2023-06-26T03:38:26;101177.09;;;16.26;84.74
7297;BME280;40758;54.038;11.684;2023-06-26T03:40:53;101170.53;;;16.27;84.49
7297;BME280;40758;54.038;11.684;2023-06-26T03:43:20;101165.88;;;16.27;84.50
7297;BME280;40758;54.038;11.684;2023-06-26T03:45:47;101163.72;;;16.29;84.48
7297;BME280;40758;54.038;11.684;2023-06-26T03:48:13;101160.09;;;16.23;84.46
7297;BME280;40758;54.038;11.684;2023-06-26T03:50:40;101156.44;;;16.18;84.27
7297;BME280;40758;54.038;11.684;2023-06-26T03:53:07;101155.00;;;16.15;84.41
7297;BME280;40758;54.038;11.684;2023-06-26T03:55:34;101153.84;;;16.11;84.11
7297;BME280;40758;54.038;11.684;2023-06-26T03:58:01;101155.00;;;16.15;84.23
7297;BME280;40758;54.038;11.684;2023-06-26T04:00:27;101155.75;;;16.28;84.73
7297;BME280;40758;54.038;11.684;2023-06-26T04:02:55;101140.13;;;16.45;84.83
7297;BME280;40758;54.038;11.684;2023-06-26T04:05:22;101144.28;;;16.64;84.88
7297;BME280;40758;54.038;11.684;2023-06-26T04:07:50;101144.94;;;16.88;84.66
7297;BME280;40758;54.038;11.684;2023-06-26T04:10:17;101123.44;;;17.02;84.43
7297;BME280;40758;54.038;11.684;2023-06-26T04:12:44;101140.53;;;17.09;84.24
7297;BME280;40758;54.038;11.684;2023-06-26T04:15:11;101132.28;;;17.09;84.06
7297;BME280;40758;54.038;11.684;2023-06-26T04:17:38;101134.19;;;17.09;84.05
7297;BME280;40758;54.038;11.684;2023-06-26T04:20:06;101127.88;;;17.08;84.00
7297;BME280;40758;54.038;11.684;2023-06-26T04:22:33;101128.03;;;17.18;84.11
7297;BME280;40758;54.038;11.684;2023-06-26T04:25:03;101127.00;;;17.24;84.12
7297;BME280;40758;54.038;11.684;2023-06-26T04:27:31;101124.88;;;17.32;84.24
7297;BME280;40758;54.038;11.684;2023-06-26T04:30:01;101121.09;;;17.38;84.14
7297;BME280;40758;54.038;11.684;2023-06-26T04:32:27;101124.03;;;17.53;84.12
7297;BME280;40758;54.038;11.684;2023-06-26T04:34:55;101116.97;;;17.62;83.87
7297;BME280;40758;54.038;11.684;2023-06-26T04:37:22;101114.59;;;17.71;83.86
7297;BME280;40758;54.038;11.684;2023-06-26T04:39:50;101108.41;;;17.80;83.72
7297;BME280;40758;54.038;11.684;2023-06-26T04:42:17;101114.13;;;18.06;83.56
7297;BME280;40758;54.038;11.684;2023-06-26T04:44:45;101112.50;;;18.84;83.06
7297;BME280;40758;54.038;11.684;2023-06-26T04:47:12;101110.59;;;19.99;81.70
7297;BME280;40758;54.038;11.684;2023-06-26T04:49:41;101111.66;;;20.74;79.12
7297;BME280;40758;54.038;11.684;2023-06-26T04:52:13;101109.88;;;21.04;77.25
7297;BME280;40758;54.038;11.684;2023-06-26T04:54:40;101103.47;;;21.73;76.06
7297;BME280;40758;54.038;11.684;2023-06-26T04:57:07;101093.81;;;22.10;73.58
7297;BME280;40758;54.038;11.684;2023-06-26T04:59:35;101087.13;;;22.16;71.79
7297;BME280;40758;54.038;11.684;2023-06-26T05:02:02;101096.47;;;22.49;70.02
7297;BME280;40758;54.038;11.684;2023-06-26T05:04:30;101091.41;;;23.09;70.19
7297;BME280;40758;54.038;11.684;2023-06-26T05:06:58;101088.81;;;23.55;68.48
7297;BME280;40758;54.038;11.684;2023-06-26T05:09:26;101077.41;;;23.76;66.03
7297;BME280;40758;54.038;11.684;2023-06-26T05:11:53;101080.94;;;23.81;64.71
7297;BME280;40758;54.038;11.684;2023-06-26T05:14:20;101078.84;;;23.73;62.75
7297;BME280;40758;54.038;11.684;2023-06-26T05:16:49;101080.03;;;23.86;61.85
7297;BME280;40758;54.038;11.684;2023-06-26T05:19:16;101074.06;;;24.58;62.37
7297;BME280;40758;54.038;11.684;2023-06-26T05:21:43;101072.94;;;24.59;59.39
7297;BME280;40758;54.038;11.684;2023-06-26T05:24:12;101077.34;;;25.15;59.79
7297;BME280;40758;54.038;11.684;2023-06-26T05:26:39;101066.56;;;25.50;58.60
7297;BME280;40758;54.038;11.684;2023-06-26T05:29:06;101063.53;;;25.73;56.90
7297;BME280;40758;54.038;11.684;2023-06-26T05:31:35;101067.94;;;25.97;55.70
7297;BME280;40758;54.038;11.684;2023-06-26T05:34:04;101064.75;;;26.35;55.10
7297;BME280;40758;54.038;11.684;2023-06-26T05:36:33;101062.91;;;26.61;53.53
7297;BME280;40758;54.038;11.684;2023-06-26T05:39:00;101065.31;;;26.94;53.29
7297;BME280;40758;54.038;11.684;2023-06-26T05:41:27;101050.50;;;27.42;53.10
7297;BME280;40758;54.038;11.684;2023-06-26T05:43:55;101055.59;;;27.57;51.11
7297;BME280;40758;54.038;11.684;2023-06-26T05:46:22;101057.56;;;27.82;51.50
7297;BME280;40758;54.038;11.684;2023-06-26T05:48:49;101052.47;;;27.93;49.53
7297;BME280;40758;54.038;11.684;2023-06-26T05:51:16;101048.75;;;27.72;47.58
7297;BME280;40758;54.038;11.684;2023-06-26T05:53:43;101039.16;;;27.99;48.33
7297;BME280;40758;54.038;11.684;2023-06-26T05:56:10;101048.38;;;27.91;47.52
7297;BME280;40758;54.038;11.684;2023-06-26T05:58:37;101040.81;;;27.56;45.66
7297;BME280;40758;54.038;11.684;2023-06-26T06:01:04;101053.94;;;27.21;46.96
7297;BME280;40758;54.038;11.684;2023-06-26T06:03:31;101041.34;;;27.84;47.54
7297;BME280;40758;54.038;11.684;2023-06-26T06:05:58;101039.09;;;28.33;46.63
7297;BME280;40758;54.038;11.684;2023-06-26T06:08:26;101032.22;;;28.99;46.75
7297;BME280;40758;54.038;11.684;2023-06-26T06:10:53;101026.75;;;28.73;43.59
7297;BME280;40758;54.038;11.684;2023-06-26T06:13:19;101027.00;;;28.59;43.76
7297;BME280;40758;54.038;11.684;2023-06-26T06:15:46;101023.69;;;28.19;43.83
7297;BME280;40758;54.038;11.684;2023-06-26T06:18:13;101031.34;;;28.77;44.36
7297;BME280;40758;54.038;11.684;2023-06-26T06:20:39;101026.72;;;29.11;43.63
7297;BME280;40758;54.038;11.684;2023-06-26T06:23:06;101019.56;;;29.64;43.39
7297;BME280;40758;54.038;11.684;2023-06-26T06:25:33;101012.09;;;29.68;41.41
7297;BME280;40758;54.038;11.684;2023-06-26T06:28:01;101016.00;;;29.76;41.32
7297;BME280;40758;54.038;11.684;2023-06-26T06:30:27;101010.78;;;29.86;40.90
7297;BME280;40758;54.038;11.684;2023-06-26T06:33:10;101016.59;;;29.81;39.96
7297;BME280;40758;54.038;11.684;2023-06-26T06:35:37;101008.16;;;29.48;39.49
7297;BME280;40758;54.038;11.684;2023-06-26T06:38:04;101004.94;;;29.37;39.92
7297;BME280;40758;54.038;11.684;2023-06-26T06:40:31;101013.63;;;29.65;39.82
7297;BME280;40758;54.038;11.684;2023-06-26T06:42:57;101010.09;;;30.02;39.43
7297;BME280;40758;54.038;11.684;2023-06-26T06:45:25;101008.53;;;30.25;38.39
7297;BME280;40758;54.038;11.684;2023-06-26T06:47:52;101012.88;;;30.59;39.17
7297;BME280;40758;54.038;11.684;2023-06-26T06:50:19;101008.69;;;29.95;37.53
7297;BME280;40758;54.038;11.684;2023-06-26T06:52:46;100994.44;;;30.22;38.24
7297;BME280;40758;54.038;11.684;2023-06-26T06:55:13;101000.38;;;30.32;37.42
7297;BME280;40758;54.038;11.684;2023-06-26T06:57:40;100994.09;;;30.60;37.42
7297;BME280;40758;54.038;11.684;2023-06-26T07:00:11;100999.69;;;29.90;37.64
7297;BME280;40758;54.038;11.684;2023-06-26T07:02:39;100992.84;;;30.00;37.16
7297;BME280;40758;54.038;11.684;2023-06-26T07:05:06;100985.13;;;29.97;37.68
7297;BME280;40758;54.038;11.684;2023-06-26T07:07:34;100985.03;;;29.60;37.70
7297;BME280;40758;54.038;11.684;2023-06-26T07:10:05;100973.94;;;29.97;38.21
7297;BME280;40758;54.038;11.684;2023-06-26T07:12:32;100978.91;;;30.61;38.44
7297;BME280;40758;54.038;11.684;2023-06-26T07:15:01;100978.66;;;29.72;37.60
7297;BME280;40758;54.038;11.684;2023-06-26T07:17:31;100981.88;;;30.07;37.32
7297;BME280;40758;54.038;11.684;2023-06-26T07:19:57;100964.22;;;30.76;37.86
7297;BME280;40758;54.038;11.684;2023-06-26T07:22:26;100980.94;;;31.13;35.54
7297;BME280;40758;54.038;11.684;2023-06-26T07:24:53;100971.34;;;31.54;35.46
7297;BME280;40758;54.038;11.684;2023-06-26T07:27:20;100980.00;;;31.89;35.99
7297;BME280;40758;54.038;11.684;2023-06-26T07:29:47;100977.88;;;31.86;34.15
7297;BME280;40758;54.038;11.684;2023-06-26T07:32:13;100976.75;;;31.75;34.31
7297;BME280;40758;54.038;11.684;2023-06-26T07:34:41;100965.84;;;31.86;34.40
7297;BME280;40758;54.038;11.684;2023-06-26T07:37:08;100958.44;;;32.09;34.52
7297;BME280;40758;54.038;11.684;2023-06-26T07:39:35;100964.75;;;32.06;34.53
7297;BME280;40758;54.038;11.684;2023-06-26T07:42:01;100962.84;;;31.94;33.94
7297;BME280;40758;54.038;11.684;2023-06-26T07:44:28;100951.25;;;31.52;34.41
7297;BME280;40758;54.038;11.684;2023-06-26T07:46:55;100956.06;;;30.34;34.33
7297;BME280;40758;54.038;11.684;2023-06-26T07:49:22;100941.91;;;30.80;35.17
7297;BME280;40758;54.038;11.684;2023-06-26T07:51:49;100944.06;;;30.98;34.70
7297;BME280;40758;54.038;11.684;2023-06-26T07:54:16;100928.69;;;31.20;35.40
7297;BME280;40758;54.038;11.684;2023-06-26T07:59:20;100928.00;;;31.51;35.37
7297;BME280;40758;54.038;11.684;2023-06-26T08:01:49;100922.72;;;31.78;34.12
7297;BME280;40758;54.038;11.684;2023-06-26T08:04:19;100924.44;;;31.39;32.69
7297;BME280;40758;54.038;11.684;2023-06-26T08:06:52;100923.66;;;31.70;34.42
7297;BME280;40758;54.038;11.684;2023-06-26T08:09:21;100912.41;;;31.98;33.56
7297;BME280;40758;54.038;11.684;2023-06-26T08:11:48;100923.84;;;31.77;33.14
7297;BME280;40758;54.038;11.684;2023-06-26T08:14:15;100908.53;;;32.02;33.08
7297;BME280;40758;54.038;11.684;2023-06-26T08:16:43;100919.66;;;32.15;32.55
7297;BME280;40758;54.038;11.684;2023-06-26T08:19:14;100909.09;;;31.64;32.31
7297;BME280;40758;54.038;11.684;2023-06-26T08:21:42;100907.91;;;31.49;32.13
7297;BME280;40758;54.038;11.684;2023-06-26T08:24:10;100901.53;;;31.96;33.38
7297;BME280;40758;54.038;11.684;2023-06-26T08:26:37;100894.19;;;32.08;33.13
7297;BME280;40758;54.038;11.684;2023-06-26T08:29:03;100883.31;;;32.22;32.52
7297;BME280;40758;54.038;11.684;2023-06-26T08:31:39;100881.75;;;31.77;32.45
7297;BME280;40758;54.038;11.684;2023-06-26T08:34:07;100884.78;;;31.84;32.73
7297;BME280;40758;54.038;11.684;2023-06-26T08:36:34;100883.34;;;31.18;33.38
7297;BME280;40758;54.038;11.684;2023-06-26T08:39:01;100886.91;;;31.75;33.21
7297;BME280;40758;54.038;11.684;2023-06-26T08:41:28;100881.13;;;31.68;32.37
7297;BME280;40758;54.038;11.684;2023-06-26T08:43:57;100868.53;;;31.62;31.99
7297;BME280;40758;54.038;11.684;2023-06-26T08:46:24;100859.03;;;30.94;33.41
7297;BME280;40758;54.038;11.684;2023-06-26T08:48:56;100861.94;;;31.70;33.35
7297;BME280;40758;54.038;11.684;2023-06-26T08:51:24;100864.88;;;31.89;32.38
7297;BME280;40758;54.038;11.684;2023-06-26T08:53:57;100853.59;;;31.58;32.25
7297;BME280;40758;54.038;11.684;2023-06-26T08:56:32;100847.53;;;31.56;32.05
7297;BME280;40758;54.038;11.684;2023-06-26T08:59:01;100846.63;;;31.67;31.63
7297;BME280;40758;54.038;11.684;2023-06-26T09:01:28;100845.09;;;31.70;31.97
7297;BME280;40758;54.038;11.684;2023-06-26T09:03:55;100846.91;;;31.78;32.00
7297;BME280;40758;54.038;11.684;2023-06-26T09:06:22;100845.09;;;32.01;31.84
7297;BME280;40758;54.038;11.684;2023-06-26T09:08:49;100845.59;;;32.23;31.23
7297;BME280;40758;54.038;11.684;2023-06-26T09:11:16;100838.78;;;32.24;30.55
7297;BME280;40758;54.038;11.684;2023-06-26T09:13:43;100838.09;;;32.11;30.79
7297;BME280;40758;54.038;11.684;2023-06-26T09:16:10;100847.44;;;31.99;30.53
7297;BME280;40758;54.038;11.684;2023-06-26T09:18:40;100838.59;;;31.97;31.04
7297;BME280;40758;54.038;11.684;2023-06-26T09:21:09;100829.50;;;32.04;31.08
7297;BME280;40758;54.038;11.684;2023-06-26T09:23:36;100828.75;;;32.23;31.02
7297;BME280;40758;54.038;11.684;2023-06-26T09:26:04;100816.84;;;32.29;30.04
7297;BME280;40758;54.038;11.684;2023-06-26T09:28:32;100821.19;;;31.60;31.25
7297;BME280;40758;54.038;11.684;2023-06-26T09:31:04;100810.75;;;31.76;30.47
7297;BME280;40758;54.038;11.684;2023-06-26T09:33:35;100812.69;;;31.57;31.79
7297;BME280;40758;54.038;11.684;2023-06-26T09:36:09;100802.53;;;30.92;32.09
7297;BME280;40758;54.038;11.684;2023-06-26T09:38:44;100800.44;;;31.65;32.35
7297;BME280;40758;54.038;11.684;2023-06-26T09:41:11;100804.19;;;32.36;32.18
7297;BME280;40758;54.038;11.684;2023-06-26T09:43:48;100796.97;;;32.54;31.45
7297;BME280;40758;54.038;11.684;2023-06-26T09:46:24;100777.94;;;32.67;30.64
7297;BME280;40758;54.038;11.684;2023-06-26T09:51:34;100782.59;;;32.98;30.36
7297;BME280;40758;54.038;11.684;2023-06-26T09:54:03;100782.16;;;32.96;29.65
7297;BME280;40758;54.038;11.684;2023-06-26T09:56:32;100777.78;;;32.79;29.50
7297;BME280;40758;54.038;11.684;2023-06-26T09:59:02;100779.31;;;32.18;30.50
7297;BME280;40758;54.038;11.684;2023-06-26T10:01:31;100767.34;;;32.05;30.16
7297;BME280;40758;54.038;11.684;2023-06-26T10:03:59;100757.53;;;32.50;30.68
7297;BME280;40758;54.038;11.684;2023-06-26T10:06:35;100765.25;;;32.53;29.74
7297;BME280;40758;54.038;11.684;2023-06-26T10:09:03;100742.81;;;31.51;29.63
7297;BME280;40758;54.038;11.684;2023-06-26T10:12:03;100743.97;;;31.82;31.09
7297;BME280;40758;54.038;11.684;2023-06-26T10:14:37;100741.19;;;31.50;31.87
7297;BME280;40758;54.038;11.684;2023-06-26T10:17:08;100728.13;;;31.42;31.39
7297;BME280;40758;54.038;11.684;2023-06-26T10:19:37;100730.38;;;31.68;31.72
7297;BME280;40758;54.038;11.684;2023-06-26T10:22:04;100727.94;;;31.67;30.52
7297;BME280;40758;54.038;11.684;2023-06-26T10:24:33;100724.72;;;32.00;31.99
7297;BME280;40758;54.038;11.684;2023-06-26T10:27:10;100701.31;;;32.31;31.06
7297;BME280;40758;54.038;11.684;2023-06-26T10:29:43;100718.59;;;30.99;31.78
7297;BME280;40758;54.038;11.684;2023-06-26T10:32:12;100698.97;;;30.99;32.53
7297;BME280;40758;54.038;11.684;2023-06-26T10:34:39;100695.53;;;31.53;32.71
7297;BME280;40758;54.038;11.684;2023-06-26T10:37:06;100700.47;;;31.92;31.41
7297;BME280;40758;54.038;11.684;2023-06-26T10:39:53;100687.78;;;32.17;30.95
7297;BME280;40758;54.038;11.684;2023-06-26T10:42:35;100692.66;;;32.20;30.52
7297;BME280;40758;54.038;11.684;2023-06-26T10:45:15;100682.28;;;32.05;30.99
7297;BME280;40758;54.038;11.684;2023-06-26T10:47:43;100675.78;;;31.66;31.53
7297;BME280;40758;54.038;11.684;2023-06-26T10:53:12;100677.25;;;31.95;31.11
7297;BME280;40758;54.038;11.684;2023-06-26T10:55:50;100682.47;;;32.31;31.67
7297;BME280;40758;54.038;11.684;2023-06-26T10:58:33;100682.25;;;32.01;30.47
7297;BME280;40758;54.038;11.684;2023-06-26T11:01:20;100679.72;;;31.96;30.92
7297;BME280;40758;54.038;11.684;2023-06-26T11:06:20;100692.03;;;31.25;31.85
7297;BME280;40758;54.038;11.684;2023-06-26T11:14:23;100689.34;;;30.13;33.99
7297;BME280;40758;54.038;11.684;2023-06-26T11:16:50;100685.03;;;30.15;34.37
7297;BME280;40758;54.038;11.684;2023-06-26T11:19:18;100693.41;;;30.43;34.60
7297;BME280;40758;54.038;11.684;2023-06-26T11:21:45;100684.59;;;30.85;34.29
7297;BME280;40758;54.038;11.684;2023-06-26T11:24:13;100669.03;;;30.88;33.81
7297;BME280;40758;54.038;11.684;2023-06-26T11:26:40;100663.25;;;30.81;34.04
7297;BME280;40758;54.038;11.684;2023-06-26T11:29:08;100670.13;;;30.55;34.37
7297;BME280;40758;54.038;11.684;2023-06-26T11:31:37;100671.84;;;30.16;35.06
7297;BME280;40758;54.038;11.684;2023-06-26T11:34:08;100670.06;;;29.59;35.25
7297;BME280;40758;54.038;11.684;2023-06-26T11:36:38;100747.88;;;28.87;37.15
7297;BME280;40758;54.038;11.684;2023-06-26T11:39:06;100776.06;;;26.35;47.72
7297;BME280;40758;54.038;11.684;2023-06-26T11:41:34;100786.44;;;23.84;55.87
7297;BME280;40758;54.038;11.684;2023-06-26T11:46:31;100774.25;;;22.41;64.92
7297;BME280;40758;54.038;11.684;2023-06-26T11:48:58;100787.53;;;22.20;67.38
7297;BME280;40758;54.038;11.684;2023-06-26T11:51:27;100795.41;;;22.13;69.28
7297;BME280;40758;54.038;11.684;2023-06-26T11:53:56;100814.84;;;22.03;70.77
7297;BME280;40758;54.038;11.684;2023-06-26T11:56:26;100826.44;;;22.05;71.99
7297;BME280;40758;54.038;11.684;2023-06-26T11:58:56;100822.31;;;22.02;73.96
7297;BME280;40758;54.038;11.684;2023-06-26T12:04:02;100862.13;;;21.54;75.06
7297;BME280;40758;54.038;11.684;2023-06-26T12:06:35;100870.38;;;21.24;75.88
7297;BME280;40758;54.038;11.684;2023-06-26T12:09:05;100862.53;;;21.08;77.30
7297;BME280;40758;54.038;11.684;2023-06-26T12:11:34;100861.00;;;20.86;77.89
7297;BME280;40758;54.038;11.684;2023-06-26T12:14:02;100850.19;;;20.95;78.35
7297;BME280;40758;54.038;11.684;2023-06-26T12:16:33;100874.19;;;20.99;78.75
7297;BME280;40758;54.038;11.684;2023-06-26T12:19:03;100885.50;;;20.98;79.17
7297;BME280;40758;54.038;11.684;2023-06-26T12:21:51;100894.00;;;21.07;79.29
7297;BME280;40758;54.038;11.684;2023-06-26T12:24:21;100895.00;;;21.16;79.34
7297;BME280;40758;54.038;11.684;2023-06-26T12:26:53;100897.22;;;21.19;79.12
7297;BME280;40758;54.038;11.684;2023-06-26T12:29:32;100901.53;;;20.96;78.29
7297;BME280;40758;54.038;11.684;2023-06-26T12:32:01;100898.59;;;20.82;78.70
7297;BME280;40758;54.038;11.684;2023-06-26T12:34:33;100907.97;;;20.81;79.13
7297;BME280;40758;54.038;11.684;2023-06-26T12:37:02;100929.63;;;20.59;79.67
7297;BME280;40758;54.038;11.684;2023-06-26T12:39:48;100942.97;;;20.31;79.65
7297;BME280;40758;54.038;11.684;2023-06-26T12:42:19;100944.66;;;20.12;80.01
7297;BME280;40758;54.038;11.684;2023-06-26T12:44:51;100945.53;;;20.02;80.57
7297;BME280;40758;54.038;11.684;2023-06-26T12:47:24;100957.13;;;19.89;80.98
7297;BME280;40758;54.038;11.684;2023-06-26T12:49:51;100954.09;;;19.70;81.10
7297;BME280;40758;54.038;11.684;2023-06-26T12:52:20;100973.94;;;19.57;81.65
7297;BME280;40758;54.038;11.684;2023-06-26T12:54:52;100982.75;;;19.44;81.95
7297;BME280;40758;54.038;11.684;2023-06-26T12:57:19;100969.78;;;19.39;82.37
7297;BME280;40758;54.038;11.684;2023-06-26T12:59:47;100954.63;;;19.47;82.83
7297;BME280;40758;54.038;11.684;2023-06-26T13:02:13;100986.59;;;19.53;82.75
7297;BME280;40758;54.038;11.684;2023-06-26T13:04:41;100986.56;;;19.48;83.04
7297;BME280;40758;54.038;11.684;2023-06-26T13:07:08;100993.19;;;19.57;82.97
7297;BME280;40758;54.038;11.684;2023-06-26T13:09:35;101000.34;;;19.58;83.21
7297;BME280;40758;54.038;11.684;2023-06-26T13:12:05;100994.34;;;19.61;83.33
7297;BME280;40758;54.038;11.684;2023-06-26T13:14:32;101008.38;;;19.54;83.23
7297;BME280;40758;54.038;11.684;2023-06-26T13:17:01;100999.81;;;19.56;83.77
7297;BME280;40758;54.038;11.684;2023-06-26T13:19:30;101010.88;;;19.61;83.67